BWI weather

Baltimore/Washington International Thurgood Marshall Airport
Baltimore, Maryland, United States

Public forecast

Using degrees Fahrenheit for public forecast. Weather courtesy of forecast.io.

METAR (pilot weather report)

Retrieved 2017/04/27 00:54 UTC (13 minutes ago):

KBWI 270054Z 00000KT 10SM BKN023 17/15 A2981

TAF (pilot weather forecast)

Forecast is more than 12 hours old.

Retrieved 2017/04/26 00:48 UTC (1 day ago):

TAF KBWI 262343Z 2700/2806 15004KT P6SM OVC025 FM270100 15004KT P6SM BKN030 FM270400 00000KT 3SM BR SCT025 FM270700 00000KT 4SM BR BKN008 FM271000 VRB03KT 2SM BR OVC005 FM271400 14004KT 3SM BR SCT010 FM271600 15008KT P6SM SCT015 FM271800 17013G21KT P6SM FEW030 FM280400 19007KT P6SM BKN045